Yuma, AZ

12:58 PM MST on Ιούλιος 29, 2015 (GMT -0700)
Yuma Marine Corps Air Station | | Change Station
CLOSE
Current Station
Airport
Location: Yuma MCAS,
Elevation: 213 ft
Nearby Weather Stations

Elev 213 ft 32.66 °N, 114.61 °W | Updated 1 hour ago

Νεφοσκεπής
Νεφοσκεπής
97 ° F
Feels Like 100 ° F
N
8
Ανεμος Μεταβλητός Ανεμος from Ανατολικός

Σήμερα
High -- | Low -- ° F
--% Chance of Precip.
Yesterday
High -- | Low -- ° F
Precip. -- in
5:50 AM 7:39 PM
Αμφίκυρτος, 96% visible
Ατμοσφαιρική Πίεση 29.92 in
Ορατότητα 10.0 Μίλια
Σύννεφα Διάσπαρτα Νέφη 6000 ft
Νεφελώδης 10000 ft
Νεφελώδης 12000 ft
Δείκτης Δυσφορίας 100 ° F
Σημείο Δρόσου 66 ° F
Υγρασία 36%
Rainfall 0.00 in
Snow Depth Not available.
Υπεριώδης ακτινοβολία (UV) 6 out of 12
Pollen 5.20 out of 12
Air Quality Not available.
Flu Activity Not available.
METAR KNYL 291857Z 10007KT 10SM SCT060 BKN100 BKN120 36/19 A2993 RMK AO2 SLP130 T03610189

More Conditions Fewer Conditions

Ατμοσφαιρική Πίεση 29.92 in
Ορατότητα 10.0 Μίλια
Σύννεφα Διάσπαρτα Νέφη 6000 ft
Νεφελώδης 10000 ft
Νεφελώδης 12000 ft
Δείκτης Δυσφορίας 100 ° F
Σημείο Δρόσου 66 ° F
Υγρασία 36%
Rainfall 0.00 in
Snow Depth Not available.
Υπεριώδης ακτινοβολία (UV) 6 out of 12
Pollen 5.20 out of 12
Air Quality Not available.
Flu Activity Not available.
METAR KNYL 291857Z 10007KT 10SM SCT060 BKN100 BKN120 36/19 A2993 RMK AO2 SLP130 T03610189

More Conditions Fewer Conditions

10-Day Weather Forecast

×

Almanac

Αστρονομία

Jul. 29, 2015 Rise Set
Actual Time
Civil Twilight
Nautical Twilight
Astronomical Twilight
Moon
Length Of Visible Light
Διάρκεια ημέρας
Tomorrow will be .
, % of the Moon is Illuminated

Today's Extremes

State Highs State Lows

Community

WunderPhotos

Upload Photos

1,842,156 photos uploaded!

WunderBlogs® & News

Nearby

Air Quality

  Air Quality AQ Index Pollutant
Not available.

Snow Depth

Station Depth Elevation

Earthquake Activity

City Distance Mag. Time & Date
Minimum magnitude displayed is 2.5.

Coastal Water Temperatures

Τοποθεσία Θερμοκρασία

Stations

Nearby Weather Stations

Station Location Temp Δείκτης Ψυχρότητας Σημείο Δρόσου Υγρασία Ανεμος Precip. Elev Ενημερώθηκε Type